Aviation Digital Data Service (ADDS)

Output produced by METARs form (0032 UTC 24 May 2022)
found at http://www.aviationweather.gov/metar/data/
 
GBYD 240000Z 31010KT CAVOK 22/19 Q1013
TAF GBYD 232300Z 2400/2506 30010KT 9999 SCT012